Time;durP1;ratioP1;P1;durP2;ratioP2;P2;SDS_P1;SDS_P2;PMS_P1;PMS_P2;Temp;Humidity;BMP_temperature;BMP_pressure;BME280_temperature;BME280_humidity;BME280_pressure;Samples;Min_cycle;Max_cycle;Signal;HPM_P1;HPM_P2
2021/10/04 00:03:39;;;;;;;0.17;0.10;;;17.40;74.40;;;;;;10440877;28;20197;-65
2021/10/04 00:09:03;;;;;;;0.33;0.30;;;17.40;74.30;;;;;;10416008;28;20217;-65
2021/10/04 00:14:25;;;;;;;0.20;0.20;;;17.40;74.80;;;;;;10408224;28;20218;-65
2021/10/04 00:19:47;;;;;;;1.23;0.57;;;17.40;74.00;;;;;;10412538;28;20209;-64
2021/10/04 00:25:12;;;;;;;0.90;0.23;;;17.40;73.90;;;;;;10449246;28;20204;-65
2021/10/04 00:30:34;;;;;;;0.63;0.30;;;17.40;73.80;;;;;;10425922;28;20217;-65
2021/10/04 00:35:57;;;;;;;0.77;0.33;;;17.40;73.50;;;;;;10417901;28;20678;-65
2021/10/04 00:41:20;;;;;;;2.20;0.40;;;17.40;73.40;;;;;;10423885;28;20726;-65
2021/10/04 00:46:42;;;;;;;0.53;0.40;;;17.40;73.20;;;;;;10410514;28;20190;-63
2021/10/04 00:52:05;;;;;;;0.60;0.40;;;17.40;73.00;;;;;;10407578;28;20209;-62
2021/10/04 00:57:29;;;;;;;1.10;0.40;;;17.40;72.80;;;;;;10408807;28;20244;-63
2021/10/04 01:02:51;;;;;;;2.90;0.40;;;17.40;72.80;;;;;;10428756;28;20204;-65
2021/10/04 01:08:13;;;;;;;0.53;0.30;;;17.40;72.80;;;;;;10408275;28;20221;-65
2021/10/04 01:13:37;;;;;;;3.50;0.43;;;17.40;72.50;;;;;;10408554;28;20240;-64
2021/10/04 01:18:59;;;;;;;1.10;0.40;;;17.40;72.40;;;;;;10416266;28;20220;-64
2021/10/04 01:24:22;;;;;;;0.70;0.30;;;17.40;72.40;;;;;;10421139;28;20205;-63
2021/10/04 01:29:44;;;;;;;1.23;0.40;;;17.40;72.30;;;;;;10456857;28;20213;-61
2021/10/04 01:35:08;;;;;;;0.47;0.30;;;17.30;72.20;;;;;;10420793;28;20706;-65
2021/10/04 01:40:32;;;;;;;2.70;0.57;;;17.40;72.20;;;;;;10414531;28;20225;-63
2021/10/04 01:45:54;;;;;;;1.37;0.40;;;17.30;72.00;;;;;;10415247;28;20193;-64
2021/10/04 01:51:17;;;;;;;1.23;0.33;;;17.30;71.80;;;;;;10447544;28;20698;-64
2021/10/04 01:56:40;;;;;;;0.90;0.53;;;17.30;71.80;;;;;;10456349;28;20217;-64
2021/10/04 02:02:02;;;;;;;1.97;0.60;;;17.30;71.70;;;;;;10453222;28;20468;-64
2021/10/04 02:07:25;;;;;;;0.60;0.50;;;17.30;71.60;;;;;;10456394;28;20212;-64
2021/10/04 02:12:48;;;;;;;0.57;0.30;;;17.40;71.60;;;;;;10421724;28;20204;-64
2021/10/04 02:18:12;;;;;;;1.40;0.57;;;17.30;71.60;;;;;;10414607;28;20222;-63
2021/10/04 02:23:34;;;;;;;1.57;0.53;;;17.30;71.50;;;;;;10413931;28;20198;-63
2021/10/04 02:28:58;;;;;;;1.47;0.50;;;17.30;71.50;;;;;;10421782;28;20335;-63
2021/10/04 02:34:20;;;;;;;1.60;0.60;;;17.30;71.40;;;;;;10441859;28;20213;-63
2021/10/04 02:39:42;;;;;;;1.17;0.50;;;17.30;71.30;;;;;;10454127;28;20213;-64
2021/10/04 02:45:09;;;;;;;0.67;0.50;;;17.30;71.40;;;;;;10455310;28;20192;-63
2021/10/04 02:50:31;;;;;;;1.10;0.63;;;17.30;71.30;;;;;;10412639;28;20217;-64
2021/10/04 02:55:53;;;;;;;1.50;0.50;;;17.30;71.20;;;;;;10439155;28;20220;-64
2021/10/04 03:01:17;;;;;;;1.67;0.73;;;17.30;71.40;;;;;;10454383;28;20220;-64
2021/10/04 03:06:39;;;;;;;2.33;0.70;;;17.30;71.20;;;;;;10454251;28;20185;-64
2021/10/04 03:12:02;;;;;;;0.53;0.53;;;17.30;71.10;;;;;;10453895;28;20197;-63
2021/10/04 03:17:25;;;;;;;2.57;0.70;;;17.30;71.30;;;;;;10453268;28;20228;-63
2021/10/04 03:22:48;;;;;;;1.53;0.60;;;17.30;71.20;;;;;;10451516;28;20693;-62
2021/10/04 03:28:11;;;;;;;1.47;0.70;;;17.30;71.20;;;;;;10452977;28;20222;-62
2021/10/04 03:33:34;;;;;;;1.07;0.70;;;17.30;71.10;;;;;;10409964;28;20190;-63
2021/10/04 03:38:57;;;;;;;1.43;0.87;;;17.30;71.20;;;;;;10411132;28;20218;-62
2021/10/04 03:44:19;;;;;;;2.50;0.70;;;17.30;71.20;;;;;;10450345;28;20279;-62
2021/10/04 03:49:43;;;;;;;1.40;0.60;;;17.30;71.10;;;;;;10433301;28;20216;-64
2021/10/04 03:55:07;;;;;;;2.70;0.70;;;17.30;71.00;;;;;;10446450;28;20220;-63
2021/10/04 04:00:30;;;;;;;2.80;0.80;;;17.20;70.60;;;;;;10419670;28;20847;-62
2021/10/04 04:05:53;;;;;;;2.10;0.90;;;17.20;70.30;;;;;;10423981;28;20582;-62
2021/10/04 04:11:15;;;;;;;1.13;0.70;;;17.20;70.20;;;;;;10450062;28;20578;-63
2021/10/04 04:16:37;;;;;;;2.13;0.90;;;17.20;70.00;;;;;;10450304;28;20210;-62
2021/10/04 04:22:01;;;;;;;2.77;1.00;;;17.20;70.50;;;;;;10449797;28;20574;-61
2021/10/04 04:27:23;;;;;;;2.10;0.83;;;17.20;69.90;;;;;;10444988;28;20325;-61
2021/10/04 04:32:46;;;;;;;2.70;1.10;;;17.20;69.80;;;;;;10414045;28;20209;-61
2021/10/04 04:38:09;;;;;;;1.40;0.73;;;17.20;69.70;;;;;;10422976;28;20237;-61
2021/10/04 04:43:31;;;;;;;1.70;0.80;;;17.20;69.90;;;;;;10399695;28;20202;-63
2021/10/04 04:48:54;;;;;;;2.00;0.90;;;17.20;69.60;;;;;;10423510;28;20214;-61
2021/10/04 04:54:17;;;;;;;2.13;0.80;;;17.20;69.60;;;;;;10412362;28;20607;-64
2021/10/04 04:59:39;;;;;;;0.87;0.53;;;17.10;70.00;;;;;;10407852;28;20224;-64
2021/10/04 05:05:01;;;;;;;1.57;0.60;;;17.10;69.30;;;;;;10449144;28;20196;-65
2021/10/04 05:10:25;;;;;;;2.53;0.67;;;17.10;69.30;;;;;;10450442;28;20287;-63
2021/10/04 05:15:47;;;;;;;1.90;0.73;;;17.10;69.40;;;;;;10427629;28;20216;-64
2021/10/04 05:21:09;;;;;;;3.07;1.00;;;17.10;69.40;;;;;;10429179;28;20213;-65
2021/10/04 05:26:33;;;;;;;1.80;0.70;;;17.10;69.30;;;;;;10455439;23;20224;-63
2021/10/04 05:31:55;;;;;;;1.70;0.60;;;17.10;69.40;;;;;;10476141;28;20685;-65
2021/10/04 05:37:17;;;;;;;1.23;0.70;;;17.10;69.90;;;;;;10449950;28;20217;-66
2021/10/04 05:42:41;;;;;;;1.47;0.70;;;17.10;69.90;;;;;;10476968;28;20677;-67
2021/10/04 05:48:04;;;;;;;1.57;0.80;;;17.20;70.10;;;;;;10480198;28;20217;-66
2021/10/04 05:53:26;;;;;;;3.00;1.00;;;17.10;70.00;;;;;;10470746;28;20199;-65
2021/10/04 05:58:50;;;;;;;2.83;0.90;;;17.10;70.10;;;;;;10461765;28;20217;-65
2021/10/04 06:04:12;;;;;;;1.83;0.93;;;17.10;70.20;;;;;;10457035;28;20209;-65
2021/10/04 06:09:34;;;;;;;1.37;0.80;;;17.10;69.80;;;;;;10470195;28;20217;-64
2021/10/04 06:14:59;;;;;;;1.07;0.60;;;17.10;69.50;;;;;;10471698;28;20594;-65
2021/10/04 06:20:21;;;;;;;2.10;0.80;;;17.10;69.30;;;;;;10455034;28;20216;-65
2021/10/04 06:25:44;;;;;;;2.83;0.87;;;17.10;69.20;;;;;;10455810;28;20193;-65
2021/10/04 06:31:07;;;;;;;1.30;0.80;;;17.10;69.10;;;;;;10470869;28;20220;-66
2021/10/04 06:36:29;;;;;;;1.50;0.70;;;17.10;69.10;;;;;;10468783;28;20221;-65
2021/10/04 06:41:51;;;;;;;1.20;0.70;;;17.10;69.10;;;;;;10466160;28;20705;-66
2021/10/04 06:47:15;;;;;;;1.73;0.60;;;17.10;69.10;;;;;;10480224;28;20197;-66
2021/10/04 06:52:38;;;;;;;2.20;0.80;;;17.10;69.10;;;;;;10495391;28;20204;-66
2021/10/04 06:58:00;;;;;;;3.07;0.70;;;17.10;69.20;;;;;;10463396;28;20221;-64
2021/10/04 07:03:24;;;;;;;2.40;0.70;;;17.10;69.30;;;;;;10455365;28;20686;-66
2021/10/04 07:08:46;;;;;;;1.73;0.67;;;17.10;69.30;;;;;;10463014;28;20220;-67
2021/10/04 07:14:08;;;;;;;1.33;0.50;;;17.10;69.40;;;;;;10451126;28;20276;-66
2021/10/04 07:19:31;;;;;;;1.83;0.63;;;17.10;69.40;;;;;;10467382;28;20243;-65
2021/10/04 07:24:54;;;;;;;2.60;0.63;;;17.20;69.60;;;;;;10487564;28;20204;-66
2021/10/04 07:30:16;;;;;;;4.17;0.70;;;17.20;69.60;;;;;;10479386;28;20228;-65
2021/10/04 07:35:40;;;;;;;2.07;0.90;;;17.20;69.80;;;;;;10491422;28;20215;-67
2021/10/04 07:41:02;;;;;;;1.00;0.57;;;17.20;69.80;;;;;;10491099;28;20212;-65
2021/10/04 07:46:24;;;;;;;1.53;0.50;;;17.20;69.80;;;;;;10452376;28;20197;-66
2021/10/04 07:51:48;;;;;;;1.23;0.50;;;17.20;69.80;;;;;;10450733;28;20213;-65
2021/10/04 07:57:12;;;;;;;2.67;0.70;;;17.20;69.90;;;;;;10457533;28;20228;-66
2021/10/04 08:02:36;;;;;;;3.23;0.70;;;17.20;69.90;;;;;;10449604;28;20219;-64
2021/10/04 08:08:00;;;;;;;0.60;0.40;;;17.20;69.90;;;;;;10455037;28;20208;-66
2021/10/04 08:13:22;;;;;;;1.67;0.90;;;17.20;70.70;;;;;;10489260;28;20193;-66
2021/10/04 08:18:45;;;;;;;3.20;0.60;;;17.20;70.20;;;;;;10492640;28;20227;-66
2021/10/04 08:24:08;;;;;;;2.20;0.70;;;17.20;70.20;;;;;;10469619;28;20205;-66
2021/10/04 08:29:30;;;;;;;1.70;0.70;;;17.20;70.30;;;;;;10448990;28;20677;-65
2021/10/04 08:34:53;;;;;;;2.47;0.40;;;17.20;70.20;;;;;;10461520;28;20212;-65
2021/10/04 08:40:16;;;;;;;1.57;0.40;;;17.30;70.50;;;;;;10491890;28;20216;-66
2021/10/04 08:45:40;;;;;;;0.80;0.40;;;17.30;70.40;;;;;;10473818;28;20193;-65
2021/10/04 08:51:04;;;;;;;3.70;0.63;;;17.30;70.80;;;;;;10457851;28;20227;-65
2021/10/04 08:56:27;;;;;;;1.07;0.40;;;17.30;71.00;;;;;;10459293;28;20228;-65
2021/10/04 09:01:49;;;;;;;2.63;0.80;;;17.40;71.50;;;;;;10456415;28;20213;-66
2021/10/04 09:07:11;;;;;;;2.13;0.57;;;17.40;71.90;;;;;;10450633;28;20275;-65
2021/10/04 09:12:46;;;;;;;1.17;0.40;;;17.50;72.20;;;;;;10448576;28;20204;-66
2021/10/04 09:18:11;;;;;;;1.93;0.53;;;17.50;72.50;;;;;;10449730;28;20217;-66
2021/10/04 09:23:48;;;;;;;1.50;0.30;;;17.50;72.30;;;;;;10447542;28;20193;-60
2021/10/04 09:29:12;;;;;;;1.23;0.40;;;17.50;72.60;;;;;;10462488;28;20212;-62
2021/10/04 09:34:35;;;;;;;0.70;0.33;;;17.50;72.90;;;;;;10489482;28;20199;-63
2021/10/04 09:39:57;;;;;;;1.97;0.50;;;17.50;73.20;;;;;;10496738;28;20223;-66
2021/10/04 09:45:20;;;;;;;1.23;0.37;;;17.50;73.50;;;;;;10484132;28;20200;-61
2021/10/04 09:50:43;;;;;;;3.90;0.67;;;17.50;73.70;;;;;;10464468;28;20217;-62
2021/10/04 09:56:05;;;;;;;1.53;0.53;;;17.50;74.00;;;;;;10457211;28;20209;-60
2021/10/04 10:01:29;;;;;;;1.27;0.33;;;17.50;74.10;;;;;;10468085;28;20686;-60
2021/10/04 10:06:51;;;;;;;1.20;0.60;;;17.50;74.20;;;;;;10467045;28;20580;-60
2021/10/04 10:12:13;;;;;;;1.27;0.43;;;17.50;74.20;;;;;;10456031;28;20190;-63
2021/10/04 10:17:38;;;;;;;1.07;0.40;;;17.50;74.40;;;;;;10495751;28;20224;-62
2021/10/04 10:23:01;;;;;;;1.63;0.50;;;17.50;74.40;;;;;;10495838;28;20204;-62
2021/10/04 10:28:34;;;;;;;1.00;0.50;;;17.50;74.60;;;;;;10495100;28;20205;-61
2021/10/04 10:33:57;;;;;;;0.53;0.40;;;17.50;74.60;;;;;;10494102;28;20188;-67
2021/10/04 10:39:31;;;;;;;1.20;0.60;;;17.50;74.70;;;;;;10480708;28;20224;-63
2021/10/04 10:45:19;;;;;;;1.67;0.70;;;17.50;74.80;;;;;;10466970;28;20224;-64
2021/10/04 10:50:44;;;;;;;0.60;0.47;;;17.50;74.80;;;;;;10460281;28;20233;-62
2021/10/04 10:56:07;;;;;;;0.37;0.30;;;17.50;74.80;;;;;;10474923;28;20209;-65
2021/10/04 11:01:34;;;;;;;0.87;0.50;;;17.60;74.80;;;;;;10453658;28;20213;-63
2021/10/04 11:06:57;;;;;;;0.50;0.40;;;17.60;74.80;;;;;;10454543;28;20189;-65
2021/10/04 11:12:19;;;;;;;2.50;0.70;;;17.60;74.70;;;;;;10458077;28;20193;-65
2021/10/04 11:17:54;;;;;;;2.83;0.80;;;17.60;74.60;;;;;;10485487;28;20232;-64
2021/10/04 11:23:19;;;;;;;1.43;0.77;;;17.60;74.50;;;;;;10453116;28;20197;-64
2021/10/04 11:28:44;;;;;;;1.93;0.67;;;17.60;74.50;;;;;;10489158;23;20243;-65
2021/10/04 11:34:08;;;;;;;2.77;0.70;;;17.60;74.60;;;;;;10453955;28;20193;-69
2021/10/04 11:39:34;;;;;;;3.13;1.10;;;17.60;74.80;;;;;;10453583;28;20217;-69
2021/10/04 11:44:56;;;;;;;3.97;0.97;;;17.60;74.80;;;;;;10465538;28;20684;-69
2021/10/04 11:50:19;;;;;;;4.43;1.17;;;17.60;74.80;;;;;;10485319;28;20614;-69
2021/10/04 11:55:43;;;;;;;2.20;0.77;;;17.60;74.90;;;;;;10465900;28;20711;-70
2021/10/04 12:01:05;;;;;;;2.10;0.80;;;17.60;74.90;;;;;;10490999;28;20212;-70
2021/10/04 12:06:29;;;;;;;2.70;1.30;;;17.60;75.00;;;;;;10487201;28;20223;-68
2021/10/04 12:11:55;;;;;;;3.50;0.83;;;17.60;75.00;;;;;;10468966;28;20720;-68
2021/10/04 12:17:17;;;;;;;2.00;0.90;;;17.60;75.10;;;;;;10490761;28;20654;-67
2021/10/04 12:22:41;;;;;;;1.67;0.90;;;17.70;75.70;;;;;;10488240;28;20199;-67
2021/10/04 12:28:07;;;;;;;1.47;0.80;;;17.70;75.40;;;;;;10482798;28;20590;-68
2021/10/04 12:33:46;;;;;;;3.70;0.90;;;17.70;75.50;;;;;;10488168;28;20191;-67
2021/10/04 12:39:08;;;;;;;2.53;1.00;;;17.70;75.50;;;;;;10487819;28;20215;-68
2021/10/04 12:44:38;;;;;;;2.13;0.90;;;17.70;75.50;;;;;;10482047;28;20216;-68
2021/10/04 12:50:00;;;;;;;2.03;1.00;;;17.70;75.60;;;;;;10483901;28;20279;-68
2021/10/04 12:55:22;;;;;;;1.57;0.93;;;17.70;75.60;;;;;;10461268;28;20224;-68
2021/10/04 13:00:46;;;;;;;3.87;1.13;;;17.70;75.70;;;;;;10487014;28;20291;-67
2021/10/04 13:06:08;;;;;;;2.37;1.27;;;17.70;75.70;;;;;;10486162;28;20699;-67
2021/10/04 13:11:30;;;;;;;2.63;0.90;;;17.70;75.60;;;;;;10491142;28;20936;-67
2021/10/04 13:16:55;;;;;;;2.07;1.10;;;17.70;75.70;;;;;;10469234;28;20600;-67
2021/10/04 13:22:18;;;;;;;3.23;1.20;;;17.70;75.70;;;;;;10484272;28;20197;-66
2021/10/04 13:27:40;;;;;;;1.53;0.90;;;17.70;75.70;;;;;;10468675;28;20592;-67
2021/10/04 13:33:04;;;;;;;2.23;1.30;;;17.70;75.80;;;;;;10463911;28;20193;-67
2021/10/04 13:38:30;;;;;;;3.33;1.33;;;17.80;76.80;;;;;;10460179;28;20225;-69
2021/10/04 13:43:52;;;;;;;1.77;1.17;;;17.80;77.30;;;;;;10458706;28;20656;-70
2021/10/04 13:49:15;;;;;;;1.73;1.23;;;17.80;77.20;;;;;;10500069;28;20203;-70
2021/10/04 13:54:37;;;;;;;3.37;1.10;;;17.90;77.20;;;;;;10495057;28;20213;-70
2021/10/04 14:00:00;;;;;;;2.93;1.50;;;17.90;77.20;;;;;;10482217;28;20209;-70
2021/10/04 14:05:23;;;;;;;2.70;1.20;;;17.90;77.30;;;;;;10494331;28;20216;-69
2021/10/04 14:10:45;;;;;;;1.90;1.10;;;18.00;77.50;;;;;;10497861;28;20678;-69
2021/10/04 14:16:07;;;;;;;4.63;1.37;;;18.00;77.60;;;;;;10488484;28;20215;-69
2021/10/04 14:21:31;;;;;;;2.47;0.80;;;18.10;77.70;;;;;;10458359;28;20291;-69
2021/10/04 14:26:53;;;;;;;2.17;0.80;;;18.10;77.50;;;;;;10472406;28;20227;-69
2021/10/04 14:32:15;;;;;;;2.07;1.20;;;18.10;77.70;;;;;;10492694;28;20563;-69
2021/10/04 14:37:39;;;;;;;2.13;0.70;;;18.10;77.70;;;;;;10489913;28;20212;-69
2021/10/04 14:43:01;;;;;;;2.03;0.80;;;18.10;77.50;;;;;;10486443;28;20192;-69
2021/10/04 14:48:23;;;;;;;3.50;1.17;;;18.10;77.40;;;;;;10469757;28;20611;-68
2021/10/04 14:53:47;;;;;;;1.80;0.90;;;18.10;77.50;;;;;;10492620;28;20193;-69
2021/10/04 14:59:10;;;;;;;2.67;1.10;;;18.10;77.40;;;;;;10485843;28;20209;-68
2021/10/04 15:04:33;;;;;;;2.20;0.60;;;18.10;77.50;;;;;;10486944;28;20318;-68
2021/10/04 15:09:56;;;;;;;1.97;0.63;;;18.00;77.50;;;;;;10454284;28;20193;-68
2021/10/04 15:15:18;;;;;;;2.23;1.10;;;18.00;77.60;;;;;;10454310;28;20205;-68
2021/10/04 15:20:42;;;;;;;3.43;0.80;;;18.00;77.70;;;;;;10454822;28;20216;-70
2021/10/04 15:26:05;;;;;;;1.33;0.60;;;18.00;77.70;;;;;;10461254;28;20233;-69
2021/10/04 15:31:27;;;;;;;2.50;0.50;;;18.00;77.70;;;;;;10449726;28;20189;-69
2021/10/04 15:36:50;;;;;;;2.37;0.90;;;18.00;77.50;;;;;;10463068;28;20221;-69
2021/10/04 15:42:13;;;;;;;1.57;0.70;;;18.00;77.40;;;;;;10453402;28;20193;-69
2021/10/04 15:47:35;;;;;;;1.75;0.80;;;18.00;77.50;;;;;;10468074;28;20422;-69
2021/10/04 15:52:57;;;;;;;3.43;0.80;;;18.40;75.80;;;;;;10475070;28;20189;-69
2021/10/04 15:58:21;;;;;;;0.97;0.60;;;18.20;76.40;;;;;;10457700;28;20231;-69
2021/10/04 16:03:44;;;;;;;3.63;0.90;;;18.00;76.70;;;;;;10459502;28;20189;-69
2021/10/04 16:09:06;;;;;;;2.60;0.90;;;18.00;76.90;;;;;;10469172;28;20192;-70
2021/10/04 16:14:30;;;;;;;1.50;0.73;;;17.90;76.90;;;;;;10472390;28;20219;-69
2021/10/04 16:19:52;;;;;;;2.47;1.20;;;17.90;76.60;;;;;;10463474;28;20697;-69
2021/10/04 16:25:15;;;;;;;2.60;1.20;;;17.90;76.40;;;;;;10475692;28;20292;-69
2021/10/04 16:30:39;;;;;;;1.13;0.73;;;17.90;76.20;;;;;;10481662;28;20188;-68
2021/10/04 16:36:01;;;;;;;2.77;0.77;;;17.90;76.30;;;;;;10491613;28;20234;-69
2021/10/04 16:41:24;;;;;;;1.33;0.90;;;17.90;76.20;;;;;;10491854;28;20582;-68
2021/10/04 16:46:47;;;;;;;2.33;0.90;;;17.80;76.20;;;;;;10459926;28;20238;-69
2021/10/04 16:52:10;;;;;;;1.37;0.70;;;17.80;76.10;;;;;;10467109;28;20189;-69
2021/10/04 16:57:32;;;;;;;1.13;0.63;;;17.90;76.80;;;;;;10447499;28;20683;-69
2021/10/04 17:02:55;;;;;;;1.83;0.70;;;17.80;76.20;;;;;;10451268;28;20556;-70
2021/10/04 17:08:17;;;;;;;2.57;0.80;;;17.90;76.30;;;;;;10452103;28;20216;-70
2021/10/04 17:13:41;;;;;;;1.43;0.90;;;17.80;76.30;;;;;;10480978;28;20192;-69
2021/10/04 17:19:04;;;;;;;1.30;0.60;;;17.90;76.60;;;;;;10492729;28;20220;-69
2021/10/04 17:24:27;;;;;;;1.10;0.67;;;17.80;76.50;;;;;;10476634;28;20706;-69
2021/10/04 17:29:49;;;;;;;1.90;0.80;;;17.80;76.50;;;;;;10443242;22;20225;-65
2021/10/04 17:35:13;;;;;;;1.33;0.80;;;17.80;76.50;;;;;;10444225;28;20186;-65
2021/10/04 17:40:35;;;;;;;1.27;0.50;;;17.80;76.30;;;;;;10408659;28;20221;-66
2021/10/04 17:45:58;;;;;;;1.10;0.70;;;17.80;76.30;;;;;;10396566;28;20574;-67
2021/10/04 17:51:22;;;;;;;1.60;0.70;;;17.80;76.30;;;;;;10371073;28;20198;-66
2021/10/04 17:56:44;;;;;;;2.77;0.70;;;17.80;76.20;;;;;;10364600;28;20218;-66
2021/10/04 18:02:06;;;;;;;1.17;0.60;;;17.80;76.20;;;;;;10369584;28;20195;-66
2021/10/04 18:07:33;;;;;;;1.33;0.70;;;17.80;76.20;;;;;;10372247;28;20206;-66
2021/10/04 18:12:55;;;;;;;1.20;0.70;;;17.80;76.10;;;;;;10395185;28;20198;-66
2021/10/04 18:18:17;;;;;;;2.67;0.77;;;17.80;76.10;;;;;;10405538;28;20214;-66
2021/10/04 18:23:42;;;;;;;0.93;0.60;;;17.80;76.10;;;;;;10414656;28;20201;-67
2021/10/04 18:29:05;;;;;;;1.73;0.67;;;17.80;76.00;;;;;;10409284;28;20225;-66
2021/10/04 18:34:27;;;;;;;1.80;0.80;;;17.80;76.00;;;;;;10395849;28;20186;-66
2021/10/04 18:39:50;;;;;;;1.67;0.70;;;17.80;76.10;;;;;;10393174;28;20218;-66
2021/10/04 18:45:15;;;;;;;2.40;0.90;;;17.80;76.20;;;;;;10386864;28;20191;-66
2021/10/04 18:50:37;;;;;;;1.00;0.60;;;17.80;76.20;;;;;;10396278;28;20197;-66
2021/10/04 18:56:01;;;;;;;1.90;0.70;;;17.80;76.10;;;;;;10391743;28;20216;-67
2021/10/04 19:01:23;;;;;;;1.07;0.60;;;17.80;76.20;;;;;;10399585;28;20221;-64
2021/10/04 19:06:45;;;;;;;1.47;0.60;;;17.80;76.20;;;;;;10412267;28;20214;-66
2021/10/04 19:12:09;;;;;;;0.80;0.60;;;17.80;76.20;;;;;;10396116;28;20217;-66
2021/10/04 19:17:31;;;;;;;1.27;0.57;;;17.80;76.70;;;;;;10379059;28;20357;-66
2021/10/04 19:22:56;;;;;;;0.70;0.50;;;17.80;76.20;;;;;;10373151;28;20194;-66
2021/10/04 19:28:20;;;;;;;1.13;0.60;;;17.80;76.20;;;;;;10373621;28;20210;-66
2021/10/04 19:33:42;;;;;;;0.83;0.60;;;17.80;76.20;;;;;;10372888;28;20270;-67
2021/10/04 19:39:04;;;;;;;1.23;0.60;;;17.80;76.20;;;;;;10372575;28;20879;-66
2021/10/04 19:44:28;;;;;;;0.90;0.60;;;17.80;76.30;;;;;;10377887;28;20186;-67
2021/10/04 19:49:50;;;;;;;1.57;0.80;;;17.80;76.20;;;;;;10376283;28;20214;-67
2021/10/04 19:55:13;;;;;;;1.30;0.53;;;17.80;76.10;;;;;;10396671;28;20720;-67
2021/10/04 20:00:37;;;;;;;0.80;0.50;;;17.70;76.10;;;;;;10393166;28;20600;-67
2021/10/04 20:06:00;;;;;;;0.90;0.57;;;17.80;76.10;;;;;;10405226;28;20217;-65
2021/10/04 20:11:22;;;;;;;1.27;0.47;;;17.70;76.10;;;;;;10406626;28;20190;-67
2021/10/04 20:16:46;;;;;;;1.50;0.57;;;17.70;76.10;;;;;;10386025;28;20214;-65
2021/10/04 20:22:11;;;;;;;1.53;0.70;;;17.80;76.10;;;;;;10370176;28;20581;-64
2021/10/04 20:27:34;;;;;;;0.80;0.50;;;17.80;76.10;;;;;;10388474;28;20257;-66
2021/10/04 20:32:57;;;;;;;2.37;0.60;;;17.70;76.10;;;;;;10368356;28;20206;-65
2021/10/04 20:38:19;;;;;;;1.30;0.40;;;17.70;76.00;;;;;;10368855;28;20219;-65
2021/10/04 20:43:41;;;;;;;1.07;0.60;;;17.70;76.10;;;;;;10388674;28;20198;-64
2021/10/04 20:49:05;;;;;;;0.77;0.50;;;17.80;76.20;;;;;;10405237;28;20214;-64
2021/10/04 20:54:27;;;;;;;1.30;0.50;;;17.70;76.10;;;;;;10406477;28;20208;-65
2021/10/04 20:59:49;;;;;;;0.97;0.50;;;17.70;76.10;;;;;;10401677;28;20225;-65
2021/10/04 21:05:13;;;;;;;0.63;0.40;;;17.70;76.10;;;;;;10387684;28;20577;-66
2021/10/04 21:10:35;;;;;;;0.90;0.50;;;17.70;76.10;;;;;;10370014;28;20194;-65
2021/10/04 21:15:57;;;;;;;1.63;0.80;;;17.70;76.00;;;;;;10372152;28;20213;-65
2021/10/04 21:21:21;;;;;;;0.97;0.53;;;17.70;76.00;;;;;;10377202;28;20229;-65
2021/10/04 21:26:43;;;;;;;0.63;0.50;;;17.70;75.90;;;;;;10409157;28;20723;-65
2021/10/04 21:32:05;;;;;;;0.80;0.53;;;17.70;75.90;;;;;;10413301;28;20198;-66
2021/10/04 21:37:29;;;;;;;0.50;0.33;;;17.70;75.90;;;;;;10383573;28;20226;-65
2021/10/04 21:42:51;;;;;;;0.90;0.60;;;17.70;75.90;;;;;;10377087;28;20206;-64
2021/10/04 21:48:13;;;;;;;1.20;0.60;;;17.70;76.00;;;;;;10393451;28;20213;-64
2021/10/04 21:53:37;;;;;;;1.20;0.50;;;17.70;75.90;;;;;;10396410;28;20209;-64
2021/10/04 21:59:01;;;;;;;0.70;0.40;;;17.70;76.60;;;;;;10416891;28;20225;-64
2021/10/04 22:04:33;;;;;;;1.07;0.53;;;17.70;76.00;;;;;;10407479;28;20249;-65
2021/10/04 22:15:36;;;;;;;2.27;0.50;;;17.70;76.00;;;;;;10405413;28;20320;-64
2021/10/04 22:21:01;;;;;;;0.87;0.40;;;17.70;76.00;;;;;;10389965;28;20225;-66
2021/10/04 22:26:24;;;;;;;0.53;0.50;;;17.70;76.00;;;;;;10374874;28;20229;-65
2021/10/04 22:31:47;;;;;;;1.33;0.80;;;17.70;75.90;;;;;;10374101;28;20195;-66
2021/10/04 22:37:09;;;;;;;1.27;0.60;;;17.70;75.90;;;;;;10374878;28;20218;-66
2021/10/04 22:42:32;;;;;;;1.00;0.70;;;17.70;75.90;;;;;;10374612;28;20262;-65
2021/10/04 22:47:54;;;;;;;1.50;0.50;;;17.70;75.90;;;;;;10397192;28;20225;-65
2021/10/04 22:53:16;;;;;;;2.23;0.77;;;17.70;76.00;;;;;;10405145;28;20205;-64
2021/10/04 22:58:40;;;;;;;0.60;0.50;;;17.60;75.80;;;;;;10413684;28;20220;-65
2021/10/04 23:04:02;;;;;;;1.07;0.70;;;17.70;75.80;;;;;;10398913;28;20202;-64
2021/10/04 23:09:24;;;;;;;1.40;0.60;;;17.70;75.70;;;;;;10390621;28;20233;-65
2021/10/04 23:14:48;;;;;;;1.27;0.50;;;17.70;75.90;;;;;;10373015;28;20198;-66
2021/10/04 23:20:11;;;;;;;0.40;0.40;;;17.70;76.00;;;;;;10371966;28;20226;-65
2021/10/04 23:25:33;;;;;;;1.10;0.60;;;17.70;75.90;;;;;;10397622;28;20205;-64
2021/10/04 23:30:56;;;;;;;1.53;0.40;;;17.60;75.80;;;;;;10403316;28;20194;-64
2021/10/04 23:36:19;;;;;;;0.53;0.40;;;17.70;75.90;;;;;;10460376;22;20562;-64
2021/10/04 23:41:41;;;;;;;0.83;0.60;;;17.70;75.90;;;;;;10474661;28;20231;-64
2021/10/04 23:47:04;;;;;;;0.77;0.40;;;17.60;75.80;;;;;;10459877;28;20648;-66
2021/10/04 23:52:26;;;;;;;1.27;0.50;;;17.70;75.90;;;;;;10471476;28;20189;-64
2021/10/04 23:57:48;;;;;;;1.07;0.53;;;17.60;75.80;;;;;;10451456;28;20219;-64
